createdAt,value
2023-02-16T00:02:04.567Z,12.35
2023-02-16T00:04:31.788Z,11.98
2023-02-16T00:06:58.731Z,13.00
2023-02-16T00:09:25.634Z,13.15
2023-02-16T00:12:12.123Z,12.05
2023-02-16T00:14:39.592Z,12.20
2023-02-16T00:17:07.368Z,12.55
2023-02-16T00:19:39.369Z,13.30
2023-02-16T00:22:07.712Z,11.60
2023-02-16T00:24:35.123Z,12.70
2023-02-16T00:27:02.244Z,11.95
2023-02-16T00:29:31.048Z,13.27
2023-02-16T00:31:59.072Z,12.50
2023-02-16T00:34:35.608Z,11.45
2023-02-16T00:37:05.762Z,11.55
2023-02-16T00:39:33.038Z,12.18
2023-02-16T00:42:05.198Z,12.15
2023-02-16T00:44:37.934Z,13.75
2023-02-16T00:47:13.235Z,12.05
2023-02-16T00:49:40.090Z,11.90
2023-02-16T00:52:34.932Z,11.60
2023-02-16T00:55:06.768Z,12.88
2023-02-16T00:57:40.578Z,12.18
2023-02-16T01:00:24.606Z,11.80
2023-02-16T01:02:53.319Z,11.75
2023-02-16T01:05:20.363Z,11.85
2023-02-16T01:08:06.242Z,11.98
2023-02-16T01:10:52.511Z,11.25
2023-02-16T01:13:19.366Z,11.50
2023-02-16T01:15:46.619Z,11.70
2023-02-16T01:18:16.049Z,11.23
2023-02-16T01:20:43.114Z,11.43
2023-02-16T01:23:10.304Z,11.10
2023-02-16T01:25:38.002Z,11.18
2023-02-16T01:28:20.528Z,11.05
2023-02-16T01:30:47.960Z,11.45
2023-02-16T01:33:14.888Z,11.30
2023-02-16T01:35:41.813Z,11.40
2023-02-16T01:38:22.887Z,12.60
2023-02-16T01:41:00.126Z,11.73
2023-02-16T01:46:46.070Z,11.38
2023-02-16T01:49:15.303Z,12.60
2023-02-16T01:52:20.489Z,11.02
2023-02-16T01:54:54.423Z,11.18
2023-02-16T01:57:30.613Z,12.00
2023-02-16T01:59:57.426Z,11.68
2023-02-16T02:05:36.407Z,11.80
2023-02-16T02:08:24.440Z,11.35
2023-02-16T02:11:16.220Z,10.80
2023-02-16T02:13:59.459Z,11.98
2023-02-16T02:16:28.061Z,11.68
2023-02-16T02:18:54.987Z,11.30
2023-02-16T02:22:04.887Z,11.07
2023-02-16T02:24:37.561Z,11.85
2023-02-16T02:27:13.741Z,11.55
2023-02-16T02:30:06.809Z,10.50
2023-02-16T02:32:51.711Z,11.52
2023-02-16T02:35:49.882Z,11.60
2023-02-16T02:38:54.873Z,10.45
2023-02-16T02:41:48.654Z,10.40
2023-02-16T02:46:50.171Z,11.75
2023-02-16T02:49:17.070Z,10.30
2023-02-16T02:51:44.007Z,9.88
2023-02-16T02:54:39.683Z,9.85
2023-02-16T02:57:46.813Z,10.90
2023-02-16T03:00:40.516Z,10.07
2023-02-16T03:03:21.231Z,10.55
2023-02-16T03:06:10.083Z,10.10
2023-02-16T03:08:40.548Z,9.40
2023-02-16T03:11:36.612Z,10.13
2023-02-16T03:14:29.558Z,10.48
2023-02-16T03:20:15.898Z,9.65
2023-02-16T03:23:01.452Z,10.10
2023-02-16T03:25:51.199Z,9.77
2023-02-16T03:31:06.705Z,10.15
2023-02-16T03:33:34.086Z,10.23
2023-02-16T03:36:01.618Z,9.85
2023-02-16T03:38:28.677Z,9.75
2023-02-16T03:40:55.809Z,9.93
2023-02-16T03:43:26.275Z,10.02
2023-02-16T03:45:53.265Z,9.95
2023-02-16T03:48:20.540Z,9.63
2023-02-16T03:50:47.377Z,9.73
2023-02-16T03:53:14.564Z,9.65
2023-02-16T03:55:46.979Z,10.00
2023-02-16T03:58:17.131Z,9.10
2023-02-16T04:00:44.129Z,8.90
2023-02-16T04:03:11.380Z,9.68
2023-02-16T04:05:38.602Z,9.55
2023-02-16T04:08:06.229Z,9.70
2023-02-16T04:10:33.148Z,9.75
2023-02-16T04:13:00.170Z,9.93
2023-02-16T04:15:29.196Z,8.63
2023-02-16T04:17:56.512Z,9.55
2023-02-16T04:20:26.577Z,9.65
2023-02-16T04:22:53.903Z,9.38
2023-02-16T04:25:21.184Z,9.60
2023-02-16T04:27:49.024Z,9.32
2023-02-16T04:30:24.750Z,8.88
2023-02-16T04:32:51.820Z,8.95
2023-02-16T04:35:18.793Z,9.38
2023-02-16T04:37:45.721Z,9.15
2023-02-16T04:40:14.156Z,9.00
2023-02-16T04:42:42.250Z,9.35
2023-02-16T04:45:09.823Z,9.82
2023-02-16T04:47:36.759Z,8.55
2023-02-16T04:50:04.526Z,9.20
2023-02-16T04:52:32.157Z,8.68
2023-02-16T04:54:59.429Z,9.38
2023-02-16T04:57:26.309Z,8.90
2023-02-16T05:02:20.351Z,8.50
2023-02-16T05:04:47.200Z,8.45
2023-02-16T05:07:14.078Z,8.27
2023-02-16T05:09:41.010Z,7.65
2023-02-16T05:12:26.846Z,7.28
2023-02-16T05:14:53.712Z,7.93
2023-02-16T05:17:22.972Z,7.55
2023-02-16T05:19:52.112Z,7.75
2023-02-16T05:22:19.725Z,8.00
2023-02-16T05:24:46.682Z,7.45
2023-02-16T05:27:22.013Z,7.38
2023-02-16T05:29:49.189Z,6.75
2023-02-16T05:32:16.682Z,7.45
2023-02-16T05:34:44.948Z,6.95
2023-02-16T05:37:13.543Z,6.88
2023-02-16T05:39:40.428Z,6.78
2023-02-16T05:42:07.450Z,7.22
2023-02-16T05:44:34.475Z,6.63
2023-02-16T05:47:01.321Z,7.00
2023-02-16T05:49:28.191Z,6.75
2023-02-16T05:51:55.075Z,6.78
2023-02-16T05:54:21.967Z,7.70
2023-02-16T05:56:50.607Z,18.42
2023-02-16T05:59:17.721Z,21.50
2023-02-16T06:01:48.524Z,19.52
2023-02-16T06:04:17.593Z,17.15
2023-02-16T06:06:44.651Z,15.88
2023-02-16T06:09:11.847Z,15.13
2023-02-16T06:11:39.078Z,13.73
2023-02-16T06:14:26.198Z,13.65
2023-02-16T06:16:53.080Z,11.95
2023-02-16T06:19:20.660Z,11.48
2023-02-16T06:21:47.684Z,26.45
2023-02-16T06:24:15.105Z,29.25
2023-02-16T06:26:41.969Z,23.25
2023-02-16T06:29:09.375Z,20.58
2023-02-16T06:31:37.094Z,19.67
2023-02-16T06:34:04.786Z,17.80
2023-02-16T06:36:31.904Z,17.20
2023-02-16T06:38:58.899Z,26.00
2023-02-16T06:41:32.042Z,27.58
2023-02-16T06:44:00.539Z,24.17
2023-02-16T06:46:28.090Z,22.00
2023-02-16T06:48:54.999Z,20.67
2023-02-16T06:51:21.920Z,17.65
2023-02-16T06:53:49.272Z,17.42
2023-02-16T06:56:16.231Z,16.98
2023-02-16T06:58:43.100Z,15.95
2023-02-16T07:01:10.071Z,14.90
2023-02-16T07:03:37.189Z,14.02
2023-02-16T07:06:04.396Z,12.73
2023-02-16T07:08:31.320Z,13.35
2023-02-16T07:10:58.202Z,14.82
2023-02-16T07:13:25.080Z,20.58
2023-02-16T07:15:52.134Z,22.85
2023-02-16T07:18:19.151Z,22.65
2023-02-16T07:20:46.023Z,20.80
2023-02-16T07:23:12.871Z,18.98
2023-02-16T07:25:39.772Z,17.27
2023-02-16T07:28:06.710Z,16.38
2023-02-16T07:30:33.724Z,15.90
2023-02-16T07:33:00.646Z,15.73
2023-02-16T07:35:27.587Z,15.48
2023-02-16T07:37:54.484Z,14.23
2023-02-16T07:40:21.471Z,14.50
2023-02-16T07:42:48.311Z,13.77
2023-02-16T07:45:15.261Z,13.10
2023-02-16T07:47:43.488Z,12.43
2023-02-16T07:50:10.713Z,12.20
2023-02-16T07:52:38.081Z,12.27
2023-02-16T07:55:05.373Z,11.65
2023-02-16T07:57:32.252Z,12.27
2023-02-16T07:59:59.141Z,11.15
2023-02-16T08:02:27.412Z,11.10
2023-02-16T08:04:54.422Z,11.10
2023-02-16T08:07:21.723Z,10.88
2023-02-16T08:09:49.638Z,11.85
2023-02-16T08:12:17.519Z,10.25
2023-02-16T08:14:46.636Z,10.38
2023-02-16T08:17:14.082Z,10.63
2023-02-16T08:19:41.043Z,23.00
2023-02-16T08:22:08.989Z,25.45
2023-02-16T08:24:36.256Z,23.38
2023-02-16T08:27:04.813Z,20.95
2023-02-16T08:29:32.837Z,19.38
2023-02-16T08:31:59.930Z,17.25
2023-02-16T08:34:27.426Z,16.17
2023-02-16T08:36:57.596Z,14.88
2023-02-16T08:39:29.941Z,14.80
2023-02-16T08:41:58.160Z,13.63
2023-02-16T08:44:25.594Z,13.85
2023-02-16T08:46:55.026Z,20.25
2023-02-16T08:49:23.762Z,25.73
2023-02-16T08:51:56.052Z,24.35
2023-02-16T08:54:27.962Z,21.33
2023-02-16T08:56:55.663Z,20.92
2023-02-16T08:59:23.680Z,19.95
2023-02-16T09:01:50.997Z,19.60
2023-02-16T09:04:19.776Z,18.63
2023-02-16T09:06:48.463Z,18.67
2023-02-16T09:09:15.385Z,18.73
2023-02-16T09:11:42.247Z,18.90
2023-02-16T09:14:09.481Z,17.38
2023-02-16T09:16:39.373Z,19.67
2023-02-16T09:19:07.044Z,19.60
2023-02-16T09:21:34.037Z,25.35
2023-02-16T09:24:05.028Z,28.70
2023-02-16T09:26:34.331Z,27.60
2023-02-16T09:29:02.199Z,28.73
2023-02-16T09:31:32.579Z,28.73
2023-02-16T09:34:28.062Z,27.25
2023-02-16T09:36:54.981Z,26.10
2023-02-16T09:39:21.846Z,25.13
2023-02-16T09:42:09.029Z,25.80
2023-02-16T09:44:54.620Z,23.73
2023-02-16T09:47:33.728Z,23.40
2023-02-16T09:50:17.090Z,22.85
2023-02-16T09:53:22.502Z,21.02
2023-02-16T09:56:06.181Z,21.05
2023-02-16T09:58:47.088Z,18.88
2023-02-16T10:01:20.040Z,19.40
2023-02-16T10:03:55.132Z,19.13
2023-02-16T10:06:36.671Z,19.02
2023-02-16T10:09:08.474Z,18.38
2023-02-16T10:11:49.577Z,18.95
2023-02-16T10:14:24.800Z,18.25
2023-02-16T10:17:15.278Z,17.70
2023-02-16T10:19:57.672Z,16.98
2023-02-16T10:22:33.418Z,16.77
2023-02-16T10:25:06.500Z,16.65
2023-02-16T10:27:39.324Z,16.17
2023-02-16T10:30:16.539Z,16.10
2023-02-16T10:32:58.158Z,15.35
2023-02-16T10:35:39.744Z,15.55
2023-02-16T10:38:12.743Z,14.65
2023-02-16T10:40:54.307Z,13.35
2023-02-16T10:43:32.356Z,15.30
2023-02-16T10:46:01.662Z,24.58
2023-02-16T10:48:28.658Z,19.92
2023-02-16T10:51:14.791Z,20.55
2023-02-16T10:53:44.169Z,17.83
2023-02-16T10:56:52.873Z,15.77
2023-02-16T10:59:22.782Z,17.80
2023-02-16T11:01:50.561Z,21.75
2023-02-16T11:04:36.728Z,24.98
2023-02-16T11:07:18.691Z,26.90
2023-02-16T11:09:47.804Z,25.40
2023-02-16T11:12:28.946Z,25.40
2023-02-16T11:15:03.900Z,21.85
2023-02-16T11:17:32.636Z,21.70
2023-02-16T11:20:01.988Z,19.67
2023-02-16T11:25:24.431Z,17.40
2023-02-16T11:28:01.986Z,17.73
2023-02-16T11:30:33.389Z,17.42
2023-02-16T11:33:07.036Z,16.85
2023-02-16T11:35:42.255Z,19.55
2023-02-16T11:38:23.933Z,20.52
2023-02-16T11:40:54.325Z,22.95
2023-02-16T11:43:22.083Z,21.25
2023-02-16T11:46:08.146Z,19.80
2023-02-16T11:48:35.067Z,20.17
2023-02-16T11:53:36.091Z,21.23
2023-02-16T11:56:24.617Z,23.55
2023-02-16T11:59:12.717Z,22.63
2023-02-16T12:01:57.328Z,22.38
2023-02-16T12:04:44.851Z,19.95
2023-02-16T12:07:27.078Z,19.08
2023-02-16T12:10:40.390Z,17.25
2023-02-16T12:13:19.592Z,16.38
2023-02-16T12:16:06.810Z,15.63
2023-02-16T12:18:42.042Z,15.68
2023-02-16T12:21:28.240Z,14.80
2023-02-16T12:24:34.345Z,14.35
2023-02-16T12:30:11.483Z,14.75
2023-02-16T12:32:53.446Z,12.82
2023-02-16T12:35:51.382Z,14.27
2023-02-16T12:38:41.510Z,13.35
2023-02-16T12:41:14.184Z,13.98
2023-02-16T12:43:58.924Z,12.98
2023-02-16T12:46:51.968Z,13.10
2023-02-16T12:49:57.150Z,12.90
2023-02-16T12:52:32.767Z,12.77
2023-02-16T12:55:15.423Z,12.88
2023-02-16T12:57:49.939Z,11.55
2023-02-16T13:00:39.608Z,11.75
2023-02-16T13:03:33.037Z,16.33
2023-02-16T13:06:08.161Z,15.25
2023-02-16T13:08:52.205Z,14.50
2023-02-16T13:11:23.735Z,13.02
2023-02-16T13:13:52.285Z,12.13
2023-02-16T13:16:34.706Z,12.15
2023-02-16T13:19:01.783Z,11.80
2023-02-16T13:21:49.071Z,11.70
2023-02-16T13:24:29.642Z,10.98
2023-02-16T13:27:15.326Z,10.48
2023-02-16T13:30:27.543Z,10.32
2023-02-16T13:33:21.726Z,10.50
2023-02-16T13:36:19.122Z,10.18
2023-02-16T13:39:16.352Z,9.93
2023-02-16T13:42:11.268Z,10.23
2023-02-16T13:44:43.974Z,9.73
2023-02-16T13:47:15.497Z,10.15
2023-02-16T13:49:43.386Z,8.85
2023-02-16T13:52:12.010Z,9.07
2023-02-16T13:54:43.673Z,9.45
2023-02-16T13:57:15.070Z,9.50
2023-02-16T13:59:49.780Z,9.68
2023-02-16T14:02:55.665Z,9.90
2023-02-16T14:05:35.994Z,9.52
2023-02-16T14:08:15.514Z,9.20
2023-02-16T14:13:42.636Z,8.60
2023-02-16T14:16:26.852Z,9.30
2023-02-16T14:19:16.894Z,9.23
2023-02-16T14:21:46.088Z,7.72
2023-02-16T14:24:25.096Z,9.00
2023-02-16T14:26:59.447Z,9.43
2023-02-16T14:29:37.333Z,10.25
2023-02-16T14:32:13.735Z,10.05
2023-02-16T14:34:43.605Z,9.77
2023-02-16T14:37:16.957Z,10.00
2023-02-16T14:40:06.459Z,12.45
2023-02-16T14:42:33.205Z,18.00
2023-02-16T14:45:22.337Z,17.17
2023-02-16T14:48:10.545Z,16.02
2023-02-16T14:51:01.770Z,15.13
2023-02-16T14:53:37.525Z,13.60
2023-02-16T14:56:25.655Z,12.43
2023-02-16T14:59:11.878Z,11.68
2023-02-16T15:01:43.881Z,12.13
2023-02-16T15:04:11.477Z,11.95
2023-02-16T15:06:44.668Z,10.95
2023-02-16T15:09:25.326Z,10.40
2023-02-16T15:12:20.192Z,11.40
2023-02-16T15:14:49.219Z,10.43
2023-02-16T15:17:25.330Z,9.82
2023-02-16T15:19:54.075Z,9.38
2023-02-16T15:22:24.291Z,10.17
2023-02-16T15:25:07.928Z,9.55
2023-02-16T15:27:34.957Z,10.45
2023-02-16T15:30:09.404Z,9.70
2023-02-16T15:32:37.122Z,9.05
2023-02-16T15:35:13.867Z,8.63
2023-02-16T15:37:40.794Z,8.73
2023-02-16T15:40:26.132Z,9.02
2023-02-16T15:42:54.699Z,9.23
2023-02-16T15:45:39.556Z,8.88
2023-02-16T15:48:29.482Z,9.45
2023-02-16T15:51:13.086Z,8.35
2023-02-16T15:53:48.912Z,8.32
2023-02-16T15:56:31.161Z,8.55
2023-02-16T15:59:00.925Z,7.93
2023-02-16T16:01:37.278Z,8.18
2023-02-16T16:04:24.319Z,8.60
2023-02-16T16:06:52.231Z,8.45
2023-02-16T16:09:28.546Z,8.73
2023-02-16T16:12:00.883Z,8.45
2023-02-16T16:14:28.616Z,9.73
2023-02-16T16:16:56.158Z,8.10
2023-02-16T16:19:31.898Z,7.57
2023-02-16T16:21:58.899Z,7.40
2023-02-16T16:24:38.866Z,7.93
2023-02-16T16:27:12.502Z,8.02
2023-02-16T16:29:42.002Z,8.27
2023-02-16T16:32:28.615Z,7.47
2023-02-16T16:34:55.847Z,6.85
2023-02-16T16:37:31.932Z,7.38
2023-02-16T16:40:18.810Z,7.38
2023-02-16T16:43:14.292Z,6.65
2023-02-16T16:45:46.360Z,7.18
2023-02-16T16:48:35.825Z,6.78
2023-02-16T16:51:16.984Z,6.88
2023-02-16T16:54:06.588Z,7.22
2023-02-16T16:59:05.413Z,6.95
2023-02-16T17:01:32.841Z,6.63
2023-02-16T17:04:00.428Z,7.07
2023-02-16T17:06:27.427Z,6.93
2023-02-16T17:08:55.258Z,6.65
2023-02-16T17:11:32.026Z,6.10
2023-02-16T17:14:26.433Z,6.47
2023-02-16T17:16:56.219Z,6.60
2023-02-16T17:19:23.294Z,6.70
2023-02-16T17:21:50.342Z,7.05
2023-02-16T17:24:17.219Z,6.13
2023-02-16T17:26:44.076Z,5.93
2023-02-16T17:29:10.967Z,5.63
2023-02-16T17:31:38.012Z,5.63
2023-02-16T17:34:04.892Z,5.47
2023-02-16T17:36:31.784Z,5.50
2023-02-16T17:38:58.650Z,5.72
2023-02-16T17:41:27.961Z,5.95
2023-02-16T17:43:54.942Z,5.80
2023-02-16T17:46:23.296Z,5.97
2023-02-16T17:48:51.648Z,5.88
2023-02-16T17:51:20.223Z,5.63
2023-02-16T17:53:47.138Z,6.15
2023-02-16T17:56:15.739Z,5.70
2023-02-16T17:58:43.179Z,5.30
2023-02-16T18:01:14.856Z,5.50
2023-02-16T18:03:41.914Z,5.78
2023-02-16T18:06:15.616Z,5.43
2023-02-16T18:08:42.672Z,5.10
2023-02-16T18:11:09.634Z,5.68
2023-02-16T18:13:36.590Z,5.30
2023-02-16T18:16:04.233Z,5.40
2023-02-16T18:18:32.874Z,5.95
2023-02-16T18:20:59.851Z,5.20
2023-02-16T18:23:26.915Z,4.78
2023-02-16T18:25:53.994Z,5.15
2023-02-16T18:28:26.408Z,5.10
2023-02-16T18:30:53.352Z,5.18
2023-02-16T18:33:21.289Z,5.22
2023-02-16T18:35:50.459Z,5.10
2023-02-16T18:38:18.031Z,5.20
2023-02-16T18:40:45.952Z,5.68
2023-02-16T18:43:13.433Z,5.43
2023-02-16T18:45:41.262Z,6.47
2023-02-16T18:48:08.318Z,5.90
2023-02-16T18:50:35.342Z,5.55
2023-02-16T18:53:02.223Z,5.25
2023-02-16T18:55:32.876Z,5.50
2023-02-16T18:58:00.861Z,5.35
2023-02-16T19:00:28.494Z,5.03
2023-02-16T19:02:56.919Z,4.97
2023-02-16T19:05:24.397Z,5.25
2023-02-16T19:07:51.701Z,4.82
2023-02-16T19:10:19.321Z,4.90
2023-02-16T19:12:46.229Z,4.60
2023-02-16T19:15:13.166Z,4.60
2023-02-16T19:17:40.340Z,4.63
2023-02-16T19:20:11.448Z,4.00
2023-02-16T19:22:38.567Z,4.38
2023-02-16T19:25:06.390Z,7.22
2023-02-16T19:27:33.526Z,7.75
2023-02-16T19:30:00.578Z,7.20
2023-02-16T19:32:27.603Z,8.15
2023-02-16T19:34:54.475Z,6.72
2023-02-16T19:37:21.799Z,6.05
2023-02-16T19:39:48.794Z,5.10
2023-02-16T19:42:15.974Z,6.47
2023-02-16T19:44:42.865Z,5.05
2023-02-16T19:47:09.816Z,7.55
2023-02-16T19:49:36.822Z,5.18
2023-02-16T19:52:04.506Z,5.90
2023-02-16T19:54:34.759Z,5.35
2023-02-16T19:57:02.695Z,5.35
2023-02-16T19:59:30.400Z,5.60
2023-02-16T20:01:58.218Z,7.47
2023-02-16T20:04:25.528Z,5.10
2023-02-16T20:06:54.332Z,4.90
2023-02-16T20:09:21.980Z,8.85
2023-02-16T20:11:49.253Z,10.73
2023-02-16T20:14:16.232Z,10.35
2023-02-16T20:16:43.497Z,10.32
2023-02-16T20:19:10.897Z,12.23
2023-02-16T20:21:37.976Z,11.88
2023-02-16T20:24:06.088Z,11.30
2023-02-16T20:26:36.414Z,11.95
2023-02-16T20:29:05.055Z,12.00
2023-02-16T20:31:54.711Z,11.33
2023-02-16T20:34:22.550Z,10.93
2023-02-16T20:36:49.453Z,10.55
2023-02-16T20:39:16.408Z,11.02
2023-02-16T20:41:43.582Z,10.65
2023-02-16T20:44:11.028Z,9.52
2023-02-16T20:49:07.733Z,9.63
2023-02-16T20:51:35.825Z,9.20
2023-02-16T20:54:03.572Z,9.00
2023-02-16T20:56:30.499Z,7.95
2023-02-16T20:58:57.867Z,11.05
2023-02-16T21:01:26.593Z,12.57
2023-02-16T21:03:55.314Z,10.73
2023-02-16T21:06:23.045Z,11.27
2023-02-16T21:08:50.093Z,10.82
2023-02-16T21:11:17.068Z,10.23
2023-02-16T21:13:44.532Z,10.68
2023-02-16T21:16:12.255Z,9.80
2023-02-16T21:18:40.606Z,9.80
2023-02-16T21:21:07.857Z,9.60
2023-02-16T21:23:34.848Z,9.13
2023-02-16T21:26:03.664Z,8.32
2023-02-16T21:28:31.000Z,8.23
2023-02-16T21:31:03.795Z,8.00
2023-02-16T21:33:31.037Z,8.57
2023-02-16T21:36:12.832Z,7.93
2023-02-16T21:38:40.596Z,7.68
2023-02-16T21:41:27.723Z,7.00
2023-02-16T21:44:03.692Z,6.50
2023-02-16T21:46:35.764Z,6.45
2023-02-16T21:49:03.533Z,6.53
2023-02-16T21:51:33.951Z,6.85
2023-02-16T21:54:01.143Z,6.78
2023-02-16T21:56:48.521Z,7.30
2023-02-16T21:59:16.516Z,6.50
2023-02-16T22:01:50.886Z,6.07
2023-02-16T22:04:21.406Z,5.60
2023-02-16T22:06:50.206Z,5.53
2023-02-16T22:09:19.760Z,5.68
2023-02-16T22:14:13.699Z,4.60
2023-02-16T22:16:40.635Z,4.60
2023-02-16T22:19:11.162Z,4.00
2023-02-16T22:21:39.533Z,4.35
2023-02-16T22:24:07.747Z,3.90
2023-02-16T22:26:35.665Z,4.10
2023-02-16T22:29:07.049Z,4.93
2023-02-16T22:31:34.889Z,3.75
2023-02-16T22:34:07.276Z,4.03
2023-02-16T22:36:36.034Z,3.42
2023-02-16T22:39:02.923Z,3.95
2023-02-16T22:41:29.927Z,3.70
2023-02-16T22:43:59.122Z,3.63
2023-02-16T22:46:26.606Z,3.00
2023-02-16T22:48:53.530Z,3.10
2023-02-16T22:51:21.411Z,2.67
2023-02-16T22:53:48.584Z,3.05
2023-02-16T22:56:17.356Z,2.30
2023-02-16T22:58:44.463Z,2.65
2023-02-16T23:01:19.130Z,3.03
2023-02-16T23:06:27.377Z,2.67
2023-02-16T23:09:00.192Z,3.08
2023-02-16T23:11:27.750Z,2.35
2023-02-16T23:13:54.699Z,2.17
2023-02-16T23:16:24.140Z,3.35
2023-02-16T23:18:51.104Z,2.05
2023-02-16T23:21:29.009Z,2.20
2023-02-16T23:23:56.434Z,2.15
2023-02-16T23:26:26.510Z,2.00
2023-02-16T23:28:54.852Z,1.83
2023-02-16T23:31:22.246Z,1.88
2023-02-16T23:33:49.727Z,1.80
2023-02-16T23:36:16.689Z,1.58
2023-02-16T23:38:43.530Z,1.70
2023-02-16T23:41:14.285Z,1.50
2023-02-16T23:43:41.527Z,1.70
2023-02-16T23:46:09.052Z,1.60
2023-02-16T23:48:36.287Z,2.58
2023-02-16T23:51:03.167Z,2.03
2023-02-16T23:53:30.409Z,1.50
2023-02-16T23:56:18.726Z,1.83
2023-02-16T23:58:45.665Z,1.35
